Laramie Regional Airport Laramie US
ICAO: KLAR
IATA: LAR
Category: Medium
Scheduled Services: Yes

Elevation: 7284 ft
TransAlt. 18000 ft.

Airport Communications:
ASOS:135.475
DENVER CNTR:125.9
CASPER RDO:122.6
CTAF/UNICOM:123.05

KLAR Zoom In..

If Map Doesn't Load, Click Here

Runways:

(A) RW 03 length 8502 ft width 150 ft
---- / hdg 33

(B) RW 12 length 6300 ft width 100 ft
---- / hdg 122

(C) RW 21 length 8502 ft width 150 ft
---- / hdg 213

(D) RW 30 length 6300 ft width 100 ft
---- / hdg 302

Location; KLAR
Day. 23 / Time. 07.53 Zulu
* Altimeter: 30.18
* Temperature: 04° c. 39.2°f.
* Wind from: 180° Speed 06 kn.
Dewpoint: -08° c.
Visibility: 10 Statute Miles.
Clouds: Overcast 1000 ft.

KLAR 230753Z AUTO 18006KT 10SM OVC100 04/M08 A3018 RMK AO2 SLP128 T00441083


Wind From 180°
Speed 06 kn.

 
 
jpsmedia.com for Web Design worldairports.se 2018   terms of use